sensor_id;sensor_type;location;lat;lon;timestamp;pressure;altitude;pressure_sealevel;temperature;humidity
75553;BME280;64136;53.118;17.996;2023-07-13T00:00:56;100514.93;;;19.87;75.53
75553;BME280;64136;53.118;17.996;2023-07-13T00:04:05;100510.89;;;19.81;76.97
75553;BME280;64136;53.118;17.996;2023-07-13T00:07:00;100513.41;;;19.76;77.53
75553;BME280;64136;53.118;17.996;2023-07-13T00:09:35;100516.94;;;19.68;77.89
75553;BME280;64136;53.118;17.996;2023-07-13T00:15:42;100523.90;;;19.63;77.18
75553;BME280;64136;53.118;17.996;2023-07-13T00:18:58;100524.35;;;19.59;77.11
75553;BME280;64136;53.118;17.996;2023-07-13T00:21:32;100522.63;;;19.51;77.18
75553;BME280;64136;53.118;17.996;2023-07-13T00:24:37;100525.88;;;19.48;76.59
75553;BME280;64136;53.118;17.996;2023-07-13T00:31:53;100529.83;;;19.58;75.70
75553;BME280;64136;53.118;17.996;2023-07-13T00:38:32;100540.04;;;19.63;75.17
75553;BME280;64136;53.118;17.996;2023-07-13T00:40:58;100542.20;;;19.64;75.19
75553;BME280;64136;53.118;17.996;2023-07-13T00:43:27;100544.67;;;19.59;74.96
75553;BME280;64136;53.118;17.996;2023-07-13T00:46:09;100548.68;;;19.58;74.99
75553;BME280;64136;53.118;17.996;2023-07-13T00:48:43;100545.80;;;19.50;75.79
75553;BME280;64136;53.118;17.996;2023-07-13T00:59:35;100573.36;;;19.40;75.51
75553;BME280;64136;53.118;17.996;2023-07-13T01:06:57;100579.41;;;19.49;74.73
75553;BME280;64136;53.118;17.996;2023-07-13T01:10:25;100571.30;;;19.55;74.74
75553;BME280;64136;53.118;17.996;2023-07-13T01:16:59;100568.46;;;19.49;75.07
75553;BME280;64136;53.118;17.996;2023-07-13T01:22:58;100558.84;;;19.25;75.91
75553;BME280;64136;53.118;17.996;2023-07-13T01:26:38;100555.38;;;19.14;76.12
75553;BME280;64136;53.118;17.996;2023-07-13T01:29:07;100552.45;;;19.09;76.08
75553;BME280;64136;53.118;17.996;2023-07-13T01:31:39;100550.23;;;19.03;76.52
75553;BME280;64136;53.118;17.996;2023-07-13T01:46:47;100573.33;;;18.77;76.86
75553;BME280;64136;53.118;17.996;2023-07-13T01:49:34;100579.36;;;18.79;76.28
75553;BME280;64136;53.118;17.996;2023-07-13T01:52:16;100589.73;;;18.87;75.89
75553;BME280;64136;53.118;17.996;2023-07-13T01:54:44;100591.86;;;18.87;76.56
75553;BME280;64136;53.118;17.996;2023-07-13T02:02:19;100582.12;;;18.64;77.97
75553;BME280;64136;53.118;17.996;2023-07-13T02:04:47;100577.95;;;18.60;77.25
75553;BME280;64136;53.118;17.996;2023-07-13T02:07:45;100577.59;;;18.56;77.82
75553;BME280;64136;53.118;17.996;2023-07-13T02:10:32;100580.46;;;18.53;77.30
75553;BME280;64136;53.118;17.996;2023-07-13T02:17:26;100573.40;;;18.48;78.42
75553;BME280;64136;53.118;17.996;2023-07-13T02:24:26;100565.20;;;18.42;78.54
75553;BME280;64136;53.118;17.996;2023-07-13T02:27:19;100558.89;;;18.44;78.27
75553;BME280;64136;53.118;17.996;2023-07-13T02:30:00;100557.45;;;18.45;78.20
75553;BME280;64136;53.118;17.996;2023-07-13T02:36:44;100552.67;;;18.53;77.33
75553;BME280;64136;53.118;17.996;2023-07-13T02:42:07;100557.52;;;18.51;77.94
75553;BME280;64136;53.118;17.996;2023-07-13T02:47:40;100568.91;;;18.50;77.24
75553;BME280;64136;53.118;17.996;2023-07-13T02:50:06;100565.40;;;18.62;76.67
75553;BME280;64136;53.118;17.996;2023-07-13T02:52:44;100565.44;;;18.71;76.63
75553;BME280;64136;53.118;17.996;2023-07-13T02:55:17;100559.23;;;18.79;76.21
75553;BME280;64136;53.118;17.996;2023-07-13T02:57:54;100561.23;;;18.83;76.05
75553;BME280;64136;53.118;17.996;2023-07-13T03:05:17;100547.95;;;18.76;76.16
75553;BME280;64136;53.118;17.996;2023-07-13T03:10:32;100557.00;;;18.65;76.67
75553;BME280;64136;53.118;17.996;2023-07-13T03:20:54;100552.77;;;18.41;77.51
75553;BME280;64136;53.118;17.996;2023-07-13T03:23:55;100553.73;;;18.39;77.66
75553;BME280;64136;53.118;17.996;2023-07-13T03:30:44;100573.95;;;18.43;77.28
75553;BME280;64136;53.118;17.996;2023-07-13T03:34:11;100571.98;;;18.48;77.09
75553;BME280;64136;53.118;17.996;2023-07-13T03:36:55;100574.75;;;18.45;77.47
75553;BME280;64136;53.118;17.996;2023-07-13T03:39:56;100579.09;;;18.45;76.99
75553;BME280;64136;53.118;17.996;2023-07-13T03:42:23;100579.31;;;18.48;76.81
75553;BME280;64136;53.118;17.996;2023-07-13T03:45:28;100577.91;;;18.55;76.48
75553;BME280;64136;53.118;17.996;2023-07-13T03:47:57;100578.69;;;18.64;76.09
75553;BME280;64136;53.118;17.996;2023-07-13T03:50:31;100581.00;;;18.66;76.24
75553;BME280;64136;53.118;17.996;2023-07-13T03:53:08;100585.83;;;18.60;76.23
75553;BME280;64136;53.118;17.996;2023-07-13T03:55:52;100592.64;;;18.59;76.11
75553;BME280;64136;53.118;17.996;2023-07-13T03:58:35;100598.45;;;18.58;76.02
75553;BME280;64136;53.118;17.996;2023-07-13T04:04:52;100600.25;;;18.64;75.69
75553;BME280;64136;53.118;17.996;2023-07-13T04:07:22;100606.17;;;18.61;75.73
75553;BME280;64136;53.118;17.996;2023-07-13T04:09:58;100608.23;;;18.60;75.95
75553;BME280;64136;53.118;17.996;2023-07-13T04:12:37;100597.88;;;18.57;75.75
75553;BME280;64136;53.118;17.996;2023-07-13T04:24:32;100589.52;;;18.67;75.79
75553;BME280;64136;53.118;17.996;2023-07-13T04:35:51;100610.66;;;18.78;76.09
75553;BME280;64136;53.118;17.996;2023-07-13T04:42:12;100603.27;;;18.77;76.00
75553;BME280;64136;53.118;17.996;2023-07-13T04:45:12;100603.52;;;18.82;75.79
75553;BME280;64136;53.118;17.996;2023-07-13T04:48:45;100614.58;;;18.85;75.55
75553;BME280;64136;53.118;17.996;2023-07-13T04:51:14;100634.90;;;18.94;75.58
75553;BME280;64136;53.118;17.996;2023-07-13T04:57:27;100651.73;;;19.13;73.92
75553;BME280;64136;53.118;17.996;2023-07-13T05:00:01;100645.39;;;19.20;71.91
75553;BME280;64136;53.118;17.996;2023-07-13T05:02:38;100645.84;;;19.34;71.66
75553;BME280;64136;53.118;17.996;2023-07-13T05:05:15;100655.09;;;19.58;70.39
75553;BME280;64136;53.118;17.996;2023-07-13T05:07:44;100651.08;;;19.73;70.36
75553;BME280;64136;53.118;17.996;2023-07-13T05:10:25;100656.58;;;19.89;69.45
75553;BME280;64136;53.118;17.996;2023-07-13T05:13:04;100655.34;;;19.90;68.68
75553;BME280;64136;53.118;17.996;2023-07-13T05:15:30;100654.67;;;19.88;68.88
75553;BME280;64136;53.118;17.996;2023-07-13T05:17:56;100651.72;;;19.88;69.33
75553;BME280;64136;53.118;17.996;2023-07-13T05:20:23;100649.71;;;19.93;69.58
75553;BME280;64136;53.118;17.996;2023-07-13T05:22:49;100650.70;;;20.01;69.64
75553;BME280;64136;53.118;17.996;2023-07-13T05:25:16;100645.13;;;20.06;69.54
75553;BME280;64136;53.118;17.996;2023-07-13T05:27:42;100655.59;;;20.23;69.37
75553;BME280;64136;53.118;17.996;2023-07-13T05:30:11;100658.20;;;20.40;68.64
75553;BME280;64136;53.118;17.996;2023-07-13T05:32:38;100660.69;;;20.53;67.84
75553;BME280;64136;53.118;17.996;2023-07-13T05:35:04;100667.37;;;20.60;67.50
75553;BME280;64136;53.118;17.996;2023-07-13T05:37:31;100674.25;;;20.76;67.68
75553;BME280;64136;53.118;17.996;2023-07-13T05:39:57;100674.33;;;20.85;66.29
75553;BME280;64136;53.118;17.996;2023-07-13T05:42:23;100676.47;;;20.94;65.90
75553;BME280;64136;53.118;17.996;2023-07-13T05:44:49;100673.08;;;20.98;64.85
75553;BME280;64136;53.118;17.996;2023-07-13T05:47:15;100667.70;;;20.98;63.77
75553;BME280;64136;53.118;17.996;2023-07-13T05:49:42;100662.39;;;21.04;64.58
75553;BME280;64136;53.118;17.996;2023-07-13T05:52:08;100664.30;;;21.10;64.61
75553;BME280;64136;53.118;17.996;2023-07-13T05:54:35;100659.64;;;21.13;63.75
75553;BME280;64136;53.118;17.996;2023-07-13T05:57:03;100666.16;;;21.11;61.66
75553;BME280;64136;53.118;17.996;2023-07-13T05:59:30;100669.58;;;21.18;63.28
75553;BME280;64136;53.118;17.996;2023-07-13T06:01:56;100671.50;;;21.17;62.19
75553;BME280;64136;53.118;17.996;2023-07-13T06:04:22;100672.91;;;21.15;62.60
75553;BME280;64136;53.118;17.996;2023-07-13T06:06:48;100676.90;;;21.17;61.82
75553;BME280;64136;53.118;17.996;2023-07-13T06:09:15;100669.58;;;21.19;62.11
75553;BME280;64136;53.118;17.996;2023-07-13T06:11:42;100662.93;;;21.26;62.41
75553;BME280;64136;53.118;17.996;2023-07-13T06:14:08;100664.47;;;21.35;62.49
75553;BME280;64136;53.118;17.996;2023-07-13T06:16:34;100659.23;;;21.35;61.54
75553;BME280;64136;53.118;17.996;2023-07-13T06:19:01;100657.78;;;21.40;62.11
75553;BME280;64136;53.118;17.996;2023-07-13T06:21:27;100654.71;;;21.35;61.05
75553;BME280;64136;53.118;17.996;2023-07-13T06:23:53;100660.62;;;21.44;62.34
75553;BME280;64136;53.118;17.996;2023-07-13T06:26:20;100666.15;;;21.51;61.87
75553;BME280;64136;53.118;17.996;2023-07-13T06:28:47;100673.69;;;21.45;61.92
75553;BME280;64136;53.118;17.996;2023-07-13T06:31:14;100668.73;;;21.49;62.29
75553;BME280;64136;53.118;17.996;2023-07-13T06:33:40;100667.02;;;21.51;62.15
75553;BME280;64136;53.118;17.996;2023-07-13T06:36:08;100669.16;;;21.56;61.82
75553;BME280;64136;53.118;17.996;2023-07-13T06:38:35;100673.98;;;21.50;61.76
75553;BME280;64136;53.118;17.996;2023-07-13T06:41:02;100677.31;;;21.65;61.73
75553;BME280;64136;53.118;17.996;2023-07-13T06:43:47;100667.56;;;21.76;61.61
75553;BME280;64136;53.118;17.996;2023-07-13T06:46:14;100661.31;;;21.72;61.80
75553;BME280;64136;53.118;17.996;2023-07-13T06:48:40;100675.11;;;21.94;61.77
75553;BME280;64136;53.118;17.996;2023-07-13T06:55:58;100689.29;;;22.28;59.27
75553;BME280;64136;53.118;17.996;2023-07-13T06:58:25;100689.49;;;22.55;59.35
75553;BME280;64136;53.118;17.996;2023-07-13T07:00:52;100688.79;;;22.80;57.71
75553;BME280;64136;53.118;17.996;2023-07-13T07:03:18;100688.31;;;22.97;55.81
75553;BME280;64136;53.118;17.996;2023-07-13T07:05:44;100683.60;;;23.03;54.44
75553;BME280;64136;53.118;17.996;2023-07-13T07:08:10;100687.69;;;23.07;53.65
75553;BME280;64136;53.118;17.996;2023-07-13T07:10:37;100682.04;;;23.18;55.09
75553;BME280;64136;53.118;17.996;2023-07-13T07:13:03;100692.06;;;23.34;55.31
75553;BME280;64136;53.118;17.996;2023-07-13T07:15:30;100694.11;;;23.46;55.00
75553;BME280;64136;53.118;17.996;2023-07-13T07:17:56;100696.30;;;23.51;53.36
75553;BME280;64136;53.118;17.996;2023-07-13T07:20:22;100694.60;;;23.48;53.16
75553;BME280;64136;53.118;17.996;2023-07-13T07:22:48;100690.73;;;23.48;54.40
75553;BME280;64136;53.118;17.996;2023-07-13T07:25:18;100688.03;;;23.44;53.91
75553;BME280;64136;53.118;17.996;2023-07-13T07:32:17;100690.39;;;23.45;53.19
75553;BME280;64136;53.118;17.996;2023-07-13T07:39:11;100689.21;;;23.53;53.18
75553;BME280;64136;53.118;17.996;2023-07-13T07:49:25;100690.26;;;23.64;52.73
75553;BME280;64136;53.118;17.996;2023-07-13T07:52:01;100693.19;;;23.66;52.99
75553;BME280;64136;53.118;17.996;2023-07-13T07:54:27;100696.23;;;23.66;52.57
75553;BME280;64136;53.118;17.996;2023-07-13T07:56:56;100698.75;;;23.82;52.86
75553;BME280;64136;53.118;17.996;2023-07-13T07:59:22;100697.57;;;23.99;52.23
75553;BME280;64136;53.118;17.996;2023-07-13T08:01:48;100696.98;;;24.08;50.65
75553;BME280;64136;53.118;17.996;2023-07-13T08:04:16;100699.09;;;24.18;51.61
75553;BME280;64136;53.118;17.996;2023-07-13T08:06:42;100700.08;;;24.29;51.85
75553;BME280;64136;53.118;17.996;2023-07-13T08:09:08;100701.45;;;24.36;50.71
75553;BME280;64136;53.118;17.996;2023-07-13T08:11:35;100702.85;;;24.32;50.21
75553;BME280;64136;53.118;17.996;2023-07-13T08:14:01;100700.42;;;24.38;50.85
75553;BME280;64136;53.118;17.996;2023-07-13T08:16:28;100699.64;;;24.46;50.26
75553;BME280;64136;53.118;17.996;2023-07-13T08:18:54;100695.69;;;24.53;48.71
75553;BME280;64136;53.118;17.996;2023-07-13T08:21:20;100692.16;;;24.53;47.27
75553;BME280;64136;53.118;17.996;2023-07-13T08:23:47;100695.14;;;24.54;47.87
75553;BME280;64136;53.118;17.996;2023-07-13T08:26:13;100696.69;;;24.51;46.60
75553;BME280;64136;53.118;17.996;2023-07-13T08:28:40;100695.79;;;24.55;46.79
75553;BME280;64136;53.118;17.996;2023-07-13T08:31:07;100689.93;;;24.54;45.96
75553;BME280;64136;53.118;17.996;2023-07-13T08:33:35;100684.54;;;24.59;46.31
75553;BME280;64136;53.118;17.996;2023-07-13T08:36:04;100683.48;;;24.68;44.22
75553;BME280;64136;53.118;17.996;2023-07-13T08:38:31;100676.34;;;24.79;44.69
75553;BME280;64136;53.118;17.996;2023-07-13T08:40:58;100672.65;;;25.05;45.76
75553;BME280;64136;53.118;17.996;2023-07-13T08:43:30;100665.74;;;25.22;44.48
75553;BME280;64136;53.118;17.996;2023-07-13T08:46:09;100662.58;;;25.40;45.20
75553;BME280;64136;53.118;17.996;2023-07-13T08:51:26;100666.48;;;25.25;44.73
75553;BME280;64136;53.118;17.996;2023-07-13T08:54:02;100667.60;;;25.23;44.48
75553;BME280;64136;53.118;17.996;2023-07-13T08:56:31;100672.35;;;25.22;44.29
75553;BME280;64136;53.118;17.996;2023-07-13T08:59:01;100678.08;;;25.21;44.37
75553;BME280;64136;53.118;17.996;2023-07-13T09:04:30;100685.73;;;25.00;44.72
75553;BME280;64136;53.118;17.996;2023-07-13T09:07:21;100689.35;;;25.02;45.13
75553;BME280;64136;53.118;17.996;2023-07-13T09:09:57;100692.86;;;25.08;45.36
75553;BME280;64136;53.118;17.996;2023-07-13T09:15:35;100689.24;;;25.33;44.86
75553;BME280;64136;53.118;17.996;2023-07-13T09:18:13;100681.94;;;25.38;44.19
75553;BME280;64136;53.118;17.996;2023-07-13T09:20:44;100678.71;;;25.33;44.58
75553;BME280;64136;53.118;17.996;2023-07-13T09:23:19;100677.65;;;25.33;44.55
75553;BME280;64136;53.118;17.996;2023-07-13T09:25:48;100688.73;;;25.43;44.36
75553;BME280;64136;53.118;17.996;2023-07-13T09:28:20;100688.33;;;25.62;43.77
75553;BME280;64136;53.118;17.996;2023-07-13T09:33:30;100686.05;;;25.64;42.16
75553;BME280;64136;53.118;17.996;2023-07-13T09:35:57;100688.23;;;25.62;42.24
75553;BME280;64136;53.118;17.996;2023-07-13T09:38:24;100690.67;;;25.80;40.83
75553;BME280;64136;53.118;17.996;2023-07-13T09:44:15;100688.61;;;25.65;37.92
75553;BME280;64136;53.118;17.996;2023-07-13T09:50:03;100689.95;;;26.06;37.91
75553;BME280;64136;53.118;17.996;2023-07-13T09:55:42;100675.59;;;26.25;38.46
75553;BME280;64136;53.118;17.996;2023-07-13T09:58:25;100669.91;;;26.37;38.58
75553;BME280;64136;53.118;17.996;2023-07-13T10:00:56;100667.41;;;26.47;37.60
75553;BME280;64136;53.118;17.996;2023-07-13T10:03:27;100664.91;;;26.56;37.97
75553;BME280;64136;53.118;17.996;2023-07-13T10:05:54;100666.70;;;26.64;37.29
75553;BME280;64136;53.118;17.996;2023-07-13T10:08:29;100668.83;;;26.77;38.18
75553;BME280;64136;53.118;17.996;2023-07-13T10:11:15;100665.55;;;26.90;38.38
75553;BME280;64136;53.118;17.996;2023-07-13T10:13:45;100670.44;;;26.90;37.40
75553;BME280;64136;53.118;17.996;2023-07-13T10:16:15;100671.12;;;26.95;37.47
75553;BME280;64136;53.118;17.996;2023-07-13T10:18:44;100669.27;;;26.98;37.18
75553;BME280;64136;53.118;17.996;2023-07-13T10:21:19;100665.17;;;26.96;36.19
75553;BME280;64136;53.118;17.996;2023-07-13T10:23:56;100672.92;;;26.76;35.93
75553;BME280;64136;53.118;17.996;2023-07-13T10:26:29;100673.23;;;26.60;35.97
75553;BME280;64136;53.118;17.996;2023-07-13T10:29:03;100670.41;;;26.69;36.42
75553;BME280;64136;53.118;17.996;2023-07-13T10:34:00;100663.05;;;26.57;36.59
75553;BME280;64136;53.118;17.996;2023-07-13T10:36:41;100663.83;;;26.37;37.25
75553;BME280;64136;53.118;17.996;2023-07-13T10:41:50;100673.01;;;26.16;38.02
75553;BME280;64136;53.118;17.996;2023-07-13T10:44:23;100668.63;;;26.24;37.32
75553;BME280;64136;53.118;17.996;2023-07-13T10:47:02;100662.65;;;26.48;36.94
75553;BME280;64136;53.118;17.996;2023-07-13T10:49:31;100661.77;;;26.74;37.18
75553;BME280;64136;53.118;17.996;2023-07-13T10:51:58;100660.98;;;26.92;36.71
75553;BME280;64136;53.118;17.996;2023-07-13T10:54:31;100657.66;;;27.18;37.28
75553;BME280;64136;53.118;17.996;2023-07-13T10:57:15;100661.08;;;27.26;37.01
75553;BME280;64136;53.118;17.996;2023-07-13T10:59:48;100666.56;;;26.87;37.75
75553;BME280;64136;53.118;17.996;2023-07-13T11:02:22;100663.72;;;26.81;37.79
75553;BME280;64136;53.118;17.996;2023-07-13T11:04:52;100666.27;;;26.79;38.32
75553;BME280;64136;53.118;17.996;2023-07-13T11:07:27;100665.10;;;26.76;38.36
75553;BME280;64136;53.118;17.996;2023-07-13T11:09:59;100662.48;;;26.75;38.26
75553;BME280;64136;53.118;17.996;2023-07-13T11:12:52;100664.73;;;26.84;38.26
75553;BME280;64136;53.118;17.996;2023-07-13T11:15:27;100668.93;;;27.09;36.79
75553;BME280;64136;53.118;17.996;2023-07-13T11:17:55;100675.45;;;27.16;35.85
75553;BME280;64136;53.118;17.996;2023-07-13T11:20:35;100668.05;;;27.26;36.24
75553;BME280;64136;53.118;17.996;2023-07-13T11:23:18;100665.52;;;27.41;36.01
75553;BME280;64136;53.118;17.996;2023-07-13T11:25:48;100662.98;;;27.38;33.94
75553;BME280;64136;53.118;17.996;2023-07-13T11:28:18;100664.95;;;27.25;34.44
75553;BME280;64136;53.118;17.996;2023-07-13T11:31:02;100671.36;;;26.94;34.25
75553;BME280;64136;53.118;17.996;2023-07-13T11:33:49;100668.23;;;26.71;35.42
75553;BME280;64136;53.118;17.996;2023-07-13T11:36:23;100675.70;;;26.58;36.76
75553;BME280;64136;53.118;17.996;2023-07-13T11:38:59;100684.14;;;26.53;37.13
75553;BME280;64136;53.118;17.996;2023-07-13T11:41:37;100687.37;;;26.41;40.15
75553;BME280;64136;53.118;17.996;2023-07-13T11:44:17;100685.23;;;26.30;41.48
75553;BME280;64136;53.118;17.996;2023-07-13T11:46:49;100684.08;;;26.08;42.96
75553;BME280;64136;53.118;17.996;2023-07-13T11:49:18;100685.52;;;26.12;43.00
75553;BME280;64136;53.118;17.996;2023-07-13T11:51:44;100687.08;;;26.20;43.13
75553;BME280;64136;53.118;17.996;2023-07-13T11:54:21;100682.61;;;26.37;42.74
75553;BME280;64136;53.118;17.996;2023-07-13T11:56:49;100680.60;;;26.59;41.92
75553;BME280;64136;53.118;17.996;2023-07-13T12:01:47;100680.74;;;27.03;38.36
75553;BME280;64136;53.118;17.996;2023-07-13T12:04:25;100669.48;;;27.36;38.62
75553;BME280;64136;53.118;17.996;2023-07-13T12:09:22;100654.34;;;28.70;37.29
75553;BME280;64136;53.118;17.996;2023-07-13T12:11:51;100652.67;;;29.06;35.98
75553;BME280;64136;53.118;17.996;2023-07-13T12:14:18;100650.30;;;29.49;35.70
75553;BME280;64136;53.118;17.996;2023-07-13T12:16:46;100647.92;;;30.10;35.04
75553;BME280;64136;53.118;17.996;2023-07-13T12:19:20;100645.88;;;30.60;34.02
75553;BME280;64136;53.118;17.996;2023-07-13T12:21:48;100639.42;;;31.36;32.99
75553;BME280;64136;53.118;17.996;2023-07-13T12:24:17;100644.60;;;31.88;31.40
75553;BME280;64136;53.118;17.996;2023-07-13T12:26:44;100647.73;;;31.10;31.39
75553;BME280;64136;53.118;17.996;2023-07-13T12:29:17;100649.02;;;31.39;30.66
75553;BME280;64136;53.118;17.996;2023-07-13T12:31:47;100638.70;;;31.92;29.77
75553;BME280;64136;53.118;17.996;2023-07-13T12:34:16;100636.33;;;32.15;28.91
75553;BME280;64136;53.118;17.996;2023-07-13T12:36:51;100634.92;;;32.07;29.67
75553;BME280;64136;53.118;17.996;2023-07-13T12:39:20;100640.80;;;31.20;29.29
75553;BME280;64136;53.118;17.996;2023-07-13T12:41:49;100646.71;;;30.39;30.12
75553;BME280;64136;53.118;17.996;2023-07-13T12:44:18;100649.16;;;29.65;30.99
75553;BME280;64136;53.118;17.996;2023-07-13T12:46:58;100650.95;;;28.98;31.83
75553;BME280;64136;53.118;17.996;2023-07-13T12:49:28;100651.02;;;28.69;32.50
75553;BME280;64136;53.118;17.996;2023-07-13T12:52:00;100657.09;;;28.34;32.91
75553;BME280;64136;53.118;17.996;2023-07-13T12:54:28;100659.27;;;28.01;33.12
75553;BME280;64136;53.118;17.996;2023-07-13T12:56:56;100665.64;;;27.67;33.67
75553;BME280;64136;53.118;17.996;2023-07-13T12:59:27;100671.58;;;27.31;34.28
75553;BME280;64136;53.118;17.996;2023-07-13T13:01:55;100673.50;;;27.00;34.87
75553;BME280;64136;53.118;17.996;2023-07-13T13:04:21;100675.63;;;26.97;34.90
75553;BME280;64136;53.118;17.996;2023-07-13T13:06:48;100677.02;;;26.86;35.21
75553;BME280;64136;53.118;17.996;2023-07-13T13:09:16;100680.32;;;26.78;35.94
75553;BME280;64136;53.118;17.996;2023-07-13T13:11:44;100680.01;;;26.84;38.70
75553;BME280;64136;53.118;17.996;2023-07-13T13:14:10;100670.83;;;26.85;41.49
75553;BME280;64136;53.118;17.996;2023-07-13T13:16:49;100667.23;;;26.89;41.92
75553;BME280;64136;53.118;17.996;2023-07-13T13:19:18;100668.02;;;26.76;42.60
75553;BME280;64136;53.118;17.996;2023-07-13T13:21:46;100665.71;;;26.67;42.91
75553;BME280;64136;53.118;17.996;2023-07-13T13:24:18;100668.04;;;26.47;44.78
75553;BME280;64136;53.118;17.996;2023-07-13T13:26:46;100665.81;;;26.32;45.17
75553;BME280;64136;53.118;17.996;2023-07-13T13:29:19;100667.85;;;26.22;44.36
75553;BME280;64136;53.118;17.996;2023-07-13T13:31:46;100669.45;;;26.23;44.33
75553;BME280;64136;53.118;17.996;2023-07-13T13:34:14;100664.55;;;26.33;45.10
75553;BME280;64136;53.118;17.996;2023-07-13T13:36:42;100667.65;;;26.53;45.38
75553;BME280;64136;53.118;17.996;2023-07-13T13:39:22;100664.53;;;26.86;43.63
75553;BME280;64136;53.118;17.996;2023-07-13T13:41:51;100653.95;;;28.13;42.22
75553;BME280;64136;53.118;17.996;2023-07-13T13:44:19;100648.02;;;28.23;41.54
75553;BME280;64136;53.118;17.996;2023-07-13T13:49:21;100646.17;;;28.31;41.24
75553;BME280;64136;53.118;17.996;2023-07-13T13:51:48;100643.17;;;28.49;41.47
75553;BME280;64136;53.118;17.996;2023-07-13T13:54:17;100647.05;;;28.61;40.96
75553;BME280;64136;53.118;17.996;2023-07-13T13:56:46;100644.33;;;28.43;40.94
75553;BME280;64136;53.118;17.996;2023-07-13T13:59:13;100641.59;;;28.27;41.05
75553;BME280;64136;53.118;17.996;2023-07-13T14:01:42;100645.01;;;28.14;40.66
75553;BME280;64136;53.118;17.996;2023-07-13T14:04:15;100647.07;;;28.14;40.40
75553;BME280;64136;53.118;17.996;2023-07-13T14:06:44;100641.78;;;28.68;39.28
75553;BME280;64136;53.118;17.996;2023-07-13T14:09:12;100647.23;;;28.89;38.02
75553;BME280;64136;53.118;17.996;2023-07-13T14:12:01;100645.21;;;29.23;38.52
75553;BME280;64136;53.118;17.996;2023-07-13T14:14:27;100649.27;;;29.28;38.05
75553;BME280;64136;53.118;17.996;2023-07-13T14:16:54;100649.96;;;28.80;38.42
75553;BME280;64136;53.118;17.996;2023-07-13T14:19:22;100653.09;;;28.74;38.64
75553;BME280;64136;53.118;17.996;2023-07-13T14:21:49;100651.84;;;28.74;38.14
75553;BME280;64136;53.118;17.996;2023-07-13T14:24:15;100656.02;;;28.40;38.36
75553;BME280;64136;53.118;17.996;2023-07-13T14:26:41;100653.08;;;28.07;38.64
75553;BME280;64136;53.118;17.996;2023-07-13T14:29:13;100650.40;;;27.98;38.88
75553;BME280;64136;53.118;17.996;2023-07-13T14:31:40;100651.27;;;27.87;38.56
75553;BME280;64136;53.118;17.996;2023-07-13T14:36:38;100648.02;;;27.98;38.57
75553;BME280;64136;53.118;17.996;2023-07-13T14:39:12;100651.91;;;28.19;36.75
75553;BME280;64136;53.118;17.996;2023-07-13T14:41:38;100646.17;;;27.92;36.89
75553;BME280;64136;53.118;17.996;2023-07-13T14:44:12;100647.71;;;27.64;37.05
75553;BME280;64136;53.118;17.996;2023-07-13T14:46:39;100645.21;;;27.64;37.18
75553;BME280;64136;53.118;17.996;2023-07-13T14:49:25;100648.48;;;27.75;34.81
75553;BME280;64136;53.118;17.996;2023-07-13T14:51:52;100649.66;;;28.14;31.70
75553;BME280;64136;53.118;17.996;2023-07-13T14:54:18;100649.05;;;28.56;30.26
75553;BME280;64136;53.118;17.996;2023-07-13T14:56:44;100647.92;;;28.73;29.79
75553;BME280;64136;53.118;17.996;2023-07-13T14:59:10;100644.52;;;30.03;27.66
75553;BME280;64136;53.118;17.996;2023-07-13T15:01:39;100640.36;;;32.31;24.77
75553;BME280;64136;53.118;17.996;2023-07-13T15:04:06;100638.39;;;34.81;23.40
75553;BME280;64136;53.118;17.996;2023-07-13T15:06:56;100632.61;;;36.59;21.07
75553;BME280;64136;53.118;17.996;2023-07-13T15:09:26;100633.13;;;37.51;18.29
75553;BME280;64136;53.118;17.996;2023-07-13T15:11:54;100624.95;;;37.53;17.20
75553;BME280;64136;53.118;17.996;2023-07-13T15:14:21;100627.65;;;38.79;17.40
75553;BME280;64136;53.118;17.996;2023-07-13T15:16:49;100622.15;;;39.80;16.62
75553;BME280;64136;53.118;17.996;2023-07-13T15:19:18;100629.79;;;39.10;15.93
75553;BME280;64136;53.118;17.996;2023-07-13T15:21:46;100633.48;;;39.03;15.86
75553;BME280;64136;53.118;17.996;2023-07-13T15:26:39;100624.87;;;40.45;15.17
75553;BME280;64136;53.118;17.996;2023-07-13T15:29:06;100627.04;;;39.69;14.71
75553;BME280;64136;53.118;17.996;2023-07-13T15:31:32;100625.51;;;39.84;14.89
75553;BME280;64136;53.118;17.996;2023-07-13T15:34:00;100628.23;;;40.00;14.56
75553;BME280;64136;53.118;17.996;2023-07-13T15:36:26;100628.38;;;40.08;14.76
75553;BME280;64136;53.118;17.996;2023-07-13T15:38:54;100624.07;;;39.65;15.19
75553;BME280;64136;53.118;17.996;2023-07-13T15:41:23;100622.09;;;38.70;16.28
75553;BME280;64136;53.118;17.996;2023-07-13T15:43:52;100628.07;;;39.07;16.14
75553;BME280;64136;53.118;17.996;2023-07-13T15:46:20;100627.87;;;39.15;15.77
75553;BME280;64136;53.118;17.996;2023-07-13T15:48:49;100629.23;;;39.57;15.44
75553;BME280;64136;53.118;17.996;2023-07-13T15:51:29;100627.66;;;39.89;15.61
75553;BME280;64136;53.118;17.996;2023-07-13T15:53:59;100633.67;;;39.48;15.74
75553;BME280;64136;53.118;17.996;2023-07-13T15:56:29;100628.54;;;39.69;15.49
75553;BME280;64136;53.118;17.996;2023-07-13T15:58:59;100624.02;;;40.40;14.90
75553;BME280;64136;53.118;17.996;2023-07-13T16:01:26;100631.70;;;39.56;15.15
75553;BME280;64136;53.118;17.996;2023-07-13T16:03:53;100633.36;;;39.35;15.29
75553;BME280;64136;53.118;17.996;2023-07-13T16:06:22;100629.27;;;40.61;14.71